sensor_id;sensor_type;location;lat;lon;timestamp;P1;durP1;ratioP1;P2;durP2;ratioP2
76346;SDS011;73309;48.818;9.806;2023-11-21T00:00:28;3.43;;;1.73;;
76346;SDS011;73309;48.818;9.806;2023-11-21T00:02:57;4.20;;;2.00;;
76346;SDS011;73309;48.818;9.806;2023-11-21T00:05:24;6.57;;;2.20;;
76346;SDS011;73309;48.818;9.806;2023-11-21T00:07:50;5.43;;;1.97;;
76346;SDS011;73309;48.818;9.806;2023-11-21T00:10:16;3.70;;;2.20;;
76346;SDS011;73309;48.818;9.806;2023-11-21T00:12:42;3.37;;;2.00;;
76346;SDS011;73309;48.818;9.806;2023-11-21T00:15:11;3.13;;;1.87;;
76346;SDS011;73309;48.818;9.806;2023-11-21T00:17:38;4.90;;;2.00;;
76346;SDS011;73309;48.818;9.806;2023-11-21T00:20:04;4.50;;;2.10;;
76346;SDS011;73309;48.818;9.806;2023-11-21T00:22:30;4.13;;;1.80;;
76346;SDS011;73309;48.818;9.806;2023-11-21T00:24:56;5.77;;;2.10;;
76346;SDS011;73309;48.818;9.806;2023-11-21T00:27:21;4.40;;;2.03;;
76346;SDS011;73309;48.818;9.806;2023-11-21T00:29:47;4.77;;;1.90;;
76346;SDS011;73309;48.818;9.806;2023-11-21T00:32:13;3.43;;;1.87;;
76346;SDS011;73309;48.818;9.806;2023-11-21T00:34:39;3.73;;;2.10;;
76346;SDS011;73309;48.818;9.806;2023-11-21T00:37:04;5.17;;;2.03;;
76346;SDS011;73309;48.818;9.806;2023-11-21T00:39:29;4.30;;;1.90;;
76346;SDS011;73309;48.818;9.806;2023-11-21T00:41:55;4.10;;;2.03;;
76346;SDS011;73309;48.818;9.806;2023-11-21T00:44:20;5.73;;;1.97;;
76346;SDS011;73309;48.818;9.806;2023-11-21T00:46:45;2.70;;;1.80;;
76346;SDS011;73309;48.818;9.806;2023-11-21T00:49:12;3.33;;;1.80;;
76346;SDS011;73309;48.818;9.806;2023-11-21T00:51:38;3.37;;;1.90;;
76346;SDS011;73309;48.818;9.806;2023-11-21T00:54:03;3.60;;;2.00;;
76346;SDS011;73309;48.818;9.806;2023-11-21T00:56:29;3.37;;;1.80;;
76346;SDS011;73309;48.818;9.806;2023-11-21T00:58:54;3.20;;;1.80;;
76346;SDS011;73309;48.818;9.806;2023-11-21T01:01:20;4.13;;;1.70;;
76346;SDS011;73309;48.818;9.806;2023-11-21T01:03:46;3.97;;;2.00;;
76346;SDS011;73309;48.818;9.806;2023-11-21T01:06:13;4.43;;;2.00;;
76346;SDS011;73309;48.818;9.806;2023-11-21T01:08:38;3.70;;;1.80;;
76346;SDS011;73309;48.818;9.806;2023-11-21T01:11:04;3.53;;;1.70;;
76346;SDS011;73309;48.818;9.806;2023-11-21T01:13:30;2.77;;;1.70;;
76346;SDS011;73309;48.818;9.806;2023-11-21T01:15:55;2.53;;;1.77;;
76346;SDS011;73309;48.818;9.806;2023-11-21T01:18:21;4.57;;;2.00;;
76346;SDS011;73309;48.818;9.806;2023-11-21T01:20:46;2.40;;;1.50;;
76346;SDS011;73309;48.818;9.806;2023-11-21T01:23:13;3.00;;;1.50;;
76346;SDS011;73309;48.818;9.806;2023-11-21T01:25:39;3.07;;;1.77;;
76346;SDS011;73309;48.818;9.806;2023-11-21T01:28:04;4.27;;;1.80;;
76346;SDS011;73309;48.818;9.806;2023-11-21T01:30:29;3.20;;;1.70;;
76346;SDS011;73309;48.818;9.806;2023-11-21T01:32:55;3.47;;;1.80;;
76346;SDS011;73309;48.818;9.806;2023-11-21T01:35:21;3.17;;;1.90;;
76346;SDS011;73309;48.818;9.806;2023-11-21T01:37:46;2.37;;;1.50;;
76346;SDS011;73309;48.818;9.806;2023-11-21T01:40:13;4.33;;;1.70;;
76346;SDS011;73309;48.818;9.806;2023-11-21T01:42:38;2.73;;;1.73;;
76346;SDS011;73309;48.818;9.806;2023-11-21T01:45:04;3.33;;;1.60;;
76346;SDS011;73309;48.818;9.806;2023-11-21T01:47:30;2.63;;;1.70;;
76346;SDS011;73309;48.818;9.806;2023-11-21T01:49:56;3.73;;;2.17;;
76346;SDS011;73309;48.818;9.806;2023-11-21T01:52:21;2.23;;;1.40;;
76346;SDS011;73309;48.818;9.806;2023-11-21T01:54:47;3.03;;;1.80;;
76346;SDS011;73309;48.818;9.806;2023-11-21T01:57:14;2.53;;;1.50;;
76346;SDS011;73309;48.818;9.806;2023-11-21T01:59:39;3.37;;;1.80;;
76346;SDS011;73309;48.818;9.806;2023-11-21T02:02:06;3.10;;;1.80;;
76346;SDS011;73309;48.818;9.806;2023-11-21T02:04:32;2.60;;;1.70;;
76346;SDS011;73309;48.818;9.806;2023-11-21T02:06:58;2.53;;;1.83;;
76346;SDS011;73309;48.818;9.806;2023-11-21T02:09:25;3.17;;;1.80;;
76346;SDS011;73309;48.818;9.806;2023-11-21T02:11:51;3.10;;;1.67;;
76346;SDS011;73309;48.818;9.806;2023-11-21T02:14:17;2.50;;;1.40;;
76346;SDS011;73309;48.818;9.806;2023-11-21T02:16:43;4.43;;;1.70;;
76346;SDS011;73309;48.818;9.806;2023-11-21T02:19:08;2.50;;;1.47;;
76346;SDS011;73309;48.818;9.806;2023-11-21T02:21:36;3.00;;;1.63;;
76346;SDS011;73309;48.818;9.806;2023-11-21T02:24:03;4.37;;;1.80;;
76346;SDS011;73309;48.818;9.806;2023-11-21T02:26:29;2.80;;;1.60;;
76346;SDS011;73309;48.818;9.806;2023-11-21T02:28:54;3.17;;;1.70;;
76346;SDS011;73309;48.818;9.806;2023-11-21T02:31:20;3.07;;;1.60;;
76346;SDS011;73309;48.818;9.806;2023-11-21T02:33:45;2.43;;;1.40;;
76346;SDS011;73309;48.818;9.806;2023-11-21T02:36:10;2.67;;;1.67;;
76346;SDS011;73309;48.818;9.806;2023-11-21T02:38:36;2.40;;;1.40;;
76346;SDS011;73309;48.818;9.806;2023-11-21T02:41:02;2.10;;;1.40;;
76346;SDS011;73309;48.818;9.806;2023-11-21T02:43:28;1.60;;;1.43;;
76346;SDS011;73309;48.818;9.806;2023-11-21T02:45:53;3.10;;;1.53;;
76346;SDS011;73309;48.818;9.806;2023-11-21T02:48:19;2.33;;;1.60;;
76346;SDS011;73309;48.818;9.806;2023-11-21T02:50:44;1.97;;;1.53;;
76346;SDS011;73309;48.818;9.806;2023-11-21T02:53:09;2.87;;;1.70;;
76346;SDS011;73309;48.818;9.806;2023-11-21T02:55:35;2.57;;;1.80;;
76346;SDS011;73309;48.818;9.806;2023-11-21T02:58:02;2.37;;;1.60;;
76346;SDS011;73309;48.818;9.806;2023-11-21T03:00:27;3.33;;;1.70;;
76346;SDS011;73309;48.818;9.806;2023-11-21T03:02:53;2.77;;;1.33;;
76346;SDS011;73309;48.818;9.806;2023-11-21T03:05:19;2.20;;;1.50;;
76346;SDS011;73309;48.818;9.806;2023-11-21T03:07:45;2.80;;;1.50;;
76346;SDS011;73309;48.818;9.806;2023-11-21T03:10:10;2.03;;;1.60;;
76346;SDS011;73309;48.818;9.806;2023-11-21T03:12:35;3.10;;;1.60;;
76346;SDS011;73309;48.818;9.806;2023-11-21T03:15:02;2.70;;;1.50;;
76346;SDS011;73309;48.818;9.806;2023-11-21T03:17:28;2.47;;;1.50;;
76346;SDS011;73309;48.818;9.806;2023-11-21T03:19:54;2.60;;;1.67;;
76346;SDS011;73309;48.818;9.806;2023-11-21T03:22:19;2.40;;;1.50;;
76346;SDS011;73309;48.818;9.806;2023-11-21T03:24:45;2.97;;;1.60;;
76346;SDS011;73309;48.818;9.806;2023-11-21T03:27:10;4.17;;;1.50;;
76346;SDS011;73309;48.818;9.806;2023-11-21T03:29:35;2.60;;;1.60;;
76346;SDS011;73309;48.818;9.806;2023-11-21T03:32:02;1.73;;;1.57;;
76346;SDS011;73309;48.818;9.806;2023-11-21T03:34:28;2.57;;;1.60;;
76346;SDS011;73309;48.818;9.806;2023-11-21T03:36:54;2.77;;;1.50;;
76346;SDS011;73309;48.818;9.806;2023-11-21T03:39:19;1.87;;;1.40;;
76346;SDS011;73309;48.818;9.806;2023-11-21T03:41:45;2.47;;;1.57;;
76346;SDS011;73309;48.818;9.806;2023-11-21T03:44:10;2.93;;;1.50;;
76346;SDS011;73309;48.818;9.806;2023-11-21T03:46:36;2.27;;;1.47;;
76346;SDS011;73309;48.818;9.806;2023-11-21T03:49:02;2.27;;;1.53;;
76346;SDS011;73309;48.818;9.806;2023-11-21T03:51:28;1.77;;;1.40;;
76346;SDS011;73309;48.818;9.806;2023-11-21T03:53:53;2.63;;;1.40;;
76346;SDS011;73309;48.818;9.806;2023-11-21T03:56:19;2.23;;;1.30;;
76346;SDS011;73309;48.818;9.806;2023-11-21T03:58:44;2.73;;;1.70;;
76346;SDS011;73309;48.818;9.806;2023-11-21T04:01:10;2.80;;;1.57;;
76346;SDS011;73309;48.818;9.806;2023-11-21T04:03:35;1.90;;;1.40;;
76346;SDS011;73309;48.818;9.806;2023-11-21T04:06:02;2.33;;;1.40;;
76346;SDS011;73309;48.818;9.806;2023-11-21T04:08:27;2.27;;;1.43;;
76346;SDS011;73309;48.818;9.806;2023-11-21T04:10:53;3.10;;;1.50;;
76346;SDS011;73309;48.818;9.806;2023-11-21T04:13:18;2.57;;;1.40;;
76346;SDS011;73309;48.818;9.806;2023-11-21T04:15:44;1.93;;;1.30;;
76346;SDS011;73309;48.818;9.806;2023-11-21T04:18:09;2.00;;;1.37;;
76346;SDS011;73309;48.818;9.806;2023-11-21T04:20:34;1.73;;;1.30;;
76346;SDS011;73309;48.818;9.806;2023-11-21T04:23:01;2.33;;;1.40;;
76346;SDS011;73309;48.818;9.806;2023-11-21T04:25:26;2.13;;;1.30;;
76346;SDS011;73309;48.818;9.806;2023-11-21T04:27:52;1.77;;;1.23;;
76346;SDS011;73309;48.818;9.806;2023-11-21T04:30:17;2.63;;;1.33;;
76346;SDS011;73309;48.818;9.806;2023-11-21T04:32:43;2.23;;;1.50;;
76346;SDS011;73309;48.818;9.806;2023-11-21T04:35:08;2.73;;;1.47;;
76346;SDS011;73309;48.818;9.806;2023-11-21T04:37:34;1.97;;;1.30;;
76346;SDS011;73309;48.818;9.806;2023-11-21T04:40:01;1.80;;;1.47;;
76346;SDS011;73309;48.818;9.806;2023-11-21T04:42:26;2.13;;;1.30;;
76346;SDS011;73309;48.818;9.806;2023-11-21T04:44:51;2.47;;;1.40;;
76346;SDS011;73309;48.818;9.806;2023-11-21T04:47:17;2.50;;;1.40;;
76346;SDS011;73309;48.818;9.806;2023-11-21T04:49:42;1.83;;;1.33;;
76346;SDS011;73309;48.818;9.806;2023-11-21T04:52:08;2.67;;;1.40;;
76346;SDS011;73309;48.818;9.806;2023-11-21T04:54:33;1.57;;;1.30;;
76346;SDS011;73309;48.818;9.806;2023-11-21T04:57:00;2.50;;;1.53;;
76346;SDS011;73309;48.818;9.806;2023-11-21T04:59:25;2.63;;;1.30;;
76346;SDS011;73309;48.818;9.806;2023-11-21T05:01:50;2.33;;;1.20;;
76346;SDS011;73309;48.818;9.806;2023-11-21T05:04:16;2.63;;;1.30;;
76346;SDS011;73309;48.818;9.806;2023-11-21T05:06:41;2.07;;;1.30;;
76346;SDS011;73309;48.818;9.806;2023-11-21T05:09:07;1.60;;;1.27;;
76346;SDS011;73309;48.818;9.806;2023-11-21T05:11:32;2.13;;;1.40;;
76346;SDS011;73309;48.818;9.806;2023-11-21T05:13:59;2.37;;;1.43;;
76346;SDS011;73309;48.818;9.806;2023-11-21T05:16:25;1.63;;;1.40;;
76346;SDS011;73309;48.818;9.806;2023-11-21T05:18:51;2.80;;;1.50;;
76346;SDS011;73309;48.818;9.806;2023-11-21T05:21:16;2.13;;;1.40;;
76346;SDS011;73309;48.818;9.806;2023-11-21T05:23:41;2.23;;;1.30;;
76346;SDS011;73309;48.818;9.806;2023-11-21T05:26:07;1.90;;;1.30;;
76346;SDS011;73309;48.818;9.806;2023-11-21T05:28:32;1.90;;;1.30;;
76346;SDS011;73309;48.818;9.806;2023-11-21T05:30:59;1.80;;;1.30;;
76346;SDS011;73309;48.818;9.806;2023-11-21T05:33:24;2.87;;;1.30;;
76346;SDS011;73309;48.818;9.806;2023-11-21T05:35:50;1.67;;;1.20;;
76346;SDS011;73309;48.818;9.806;2023-11-21T05:38:15;1.97;;;1.10;;
76346;SDS011;73309;48.818;9.806;2023-11-21T05:40:40;1.30;;;1.20;;
76346;SDS011;73309;48.818;9.806;2023-11-21T05:43:06;2.60;;;1.33;;
76346;SDS011;73309;48.818;9.806;2023-11-21T05:45:31;1.20;;;1.10;;
76346;SDS011;73309;48.818;9.806;2023-11-21T05:47:58;1.30;;;1.20;;
76346;SDS011;73309;48.818;9.806;2023-11-21T05:50:24;1.80;;;1.40;;
76346;SDS011;73309;48.818;9.806;2023-11-21T05:52:49;2.67;;;1.47;;
76346;SDS011;73309;48.818;9.806;2023-11-21T05:55:14;1.40;;;1.30;;
76346;SDS011;73309;48.818;9.806;2023-11-21T05:57:41;1.73;;;1.23;;
76346;SDS011;73309;48.818;9.806;2023-11-21T06:00:08;1.63;;;1.23;;
76346;SDS011;73309;48.818;9.806;2023-11-21T06:02:34;1.37;;;1.20;;
76346;SDS011;73309;48.818;9.806;2023-11-21T06:05:01;2.23;;;1.30;;
76346;SDS011;73309;48.818;9.806;2023-11-21T06:07:27;2.17;;;1.30;;
76346;SDS011;73309;48.818;9.806;2023-11-21T06:09:52;1.87;;;1.37;;
76346;SDS011;73309;48.818;9.806;2023-11-21T06:12:18;1.30;;;1.20;;
76346;SDS011;73309;48.818;9.806;2023-11-21T06:14:43;2.00;;;1.20;;
76346;SDS011;73309;48.818;9.806;2023-11-21T06:17:08;2.67;;;1.20;;
76346;SDS011;73309;48.818;9.806;2023-11-21T06:19:34;2.00;;;1.30;;
76346;SDS011;73309;48.818;9.806;2023-11-21T06:22:00;1.87;;;1.20;;
76346;SDS011;73309;48.818;9.806;2023-11-21T06:24:26;1.97;;;1.20;;
76346;SDS011;73309;48.818;9.806;2023-11-21T06:26:51;2.07;;;1.20;;
76346;SDS011;73309;48.818;9.806;2023-11-21T06:29:17;2.00;;;1.30;;
76346;SDS011;73309;48.818;9.806;2023-11-21T06:32:08;1.93;;;1.20;;
76346;SDS011;73309;48.818;9.806;2023-11-21T06:34:34;1.70;;;1.20;;
76346;SDS011;73309;48.818;9.806;2023-11-21T06:37:01;1.87;;;1.30;;
76346;SDS011;73309;48.818;9.806;2023-11-21T06:39:26;1.83;;;1.20;;
76346;SDS011;73309;48.818;9.806;2023-11-21T06:41:51;1.30;;;1.20;;
76346;SDS011;73309;48.818;9.806;2023-11-21T06:44:17;1.40;;;1.20;;
76346;SDS011;73309;48.818;9.806;2023-11-21T06:46:42;2.20;;;1.40;;
76346;SDS011;73309;48.818;9.806;2023-11-21T06:49:08;1.87;;;1.23;;
76346;SDS011;73309;48.818;9.806;2023-11-21T06:51:34;1.90;;;1.30;;
76346;SDS011;73309;48.818;9.806;2023-11-21T06:54:00;2.23;;;1.10;;
76346;SDS011;73309;48.818;9.806;2023-11-21T06:56:26;1.30;;;1.10;;
76346;SDS011;73309;48.818;9.806;2023-11-21T06:58:51;1.63;;;1.30;;
76346;SDS011;73309;48.818;9.806;2023-11-21T07:01:17;2.40;;;1.20;;
76346;SDS011;73309;48.818;9.806;2023-11-21T07:03:42;2.13;;;1.20;;
76346;SDS011;73309;48.818;9.806;2023-11-21T07:06:08;1.00;;;0.90;;
76346;SDS011;73309;48.818;9.806;2023-11-21T07:08:33;1.47;;;1.10;;
76346;SDS011;73309;48.818;9.806;2023-11-21T07:11:00;1.67;;;1.20;;
76346;SDS011;73309;48.818;9.806;2023-11-21T07:13:25;2.17;;;1.40;;
76346;SDS011;73309;48.818;9.806;2023-11-21T07:15:51;2.33;;;1.30;;
76346;SDS011;73309;48.818;9.806;2023-11-21T07:18:16;1.10;;;1.00;;
76346;SDS011;73309;48.818;9.806;2023-11-21T07:20:41;1.13;;;1.03;;
76346;SDS011;73309;48.818;9.806;2023-11-21T07:23:07;1.47;;;1.20;;
76346;SDS011;73309;48.818;9.806;2023-11-21T07:25:32;1.97;;;1.30;;
76346;SDS011;73309;48.818;9.806;2023-11-21T07:27:59;2.07;;;1.20;;
76346;SDS011;73309;48.818;9.806;2023-11-21T07:30:24;1.87;;;1.33;;
76346;SDS011;73309;48.818;9.806;2023-11-21T07:32:50;1.87;;;1.13;;
76346;SDS011;73309;48.818;9.806;2023-11-21T07:35:15;2.03;;;1.30;;
76346;SDS011;73309;48.818;9.806;2023-11-21T07:37:40;1.27;;;1.17;;
76346;SDS011;73309;48.818;9.806;2023-11-21T07:40:06;1.90;;;1.20;;
76346;SDS011;73309;48.818;9.806;2023-11-21T07:42:32;1.60;;;1.30;;
76346;SDS011;73309;48.818;9.806;2023-11-21T07:44:59;1.87;;;1.37;;
76346;SDS011;73309;48.818;9.806;2023-11-21T07:47:24;1.47;;;1.17;;
76346;SDS011;73309;48.818;9.806;2023-11-21T07:49:50;1.77;;;1.20;;
76346;SDS011;73309;48.818;9.806;2023-11-21T07:52:15;1.73;;;1.13;;
76346;SDS011;73309;48.818;9.806;2023-11-21T07:54:40;1.77;;;1.10;;
76346;SDS011;73309;48.818;9.806;2023-11-21T07:57:06;1.60;;;1.13;;
76346;SDS011;73309;48.818;9.806;2023-11-21T07:59:31;1.80;;;1.30;;
76346;SDS011;73309;48.818;9.806;2023-11-21T08:01:58;1.57;;;1.20;;
76346;SDS011;73309;48.818;9.806;2023-11-21T08:04:23;2.10;;;1.30;;
76346;SDS011;73309;48.818;9.806;2023-11-21T08:06:49;2.27;;;1.20;;
76346;SDS011;73309;48.818;9.806;2023-11-21T08:09:14;1.77;;;1.17;;
76346;SDS011;73309;48.818;9.806;2023-11-21T08:11:39;1.10;;;1.00;;
76346;SDS011;73309;48.818;9.806;2023-11-21T08:14:05;1.60;;;1.17;;
76346;SDS011;73309;48.818;9.806;2023-11-21T08:16:30;1.20;;;1.10;;
76346;SDS011;73309;48.818;9.806;2023-11-21T08:18:57;1.27;;;1.10;;
76346;SDS011;73309;48.818;9.806;2023-11-21T08:21:22;1.60;;;1.10;;
76346;SDS011;73309;48.818;9.806;2023-11-21T08:23:48;1.43;;;1.10;;
76346;SDS011;73309;48.818;9.806;2023-11-21T08:26:15;1.20;;;1.10;;
76346;SDS011;73309;48.818;9.806;2023-11-21T08:28:41;1.57;;;1.20;;
76346;SDS011;73309;48.818;9.806;2023-11-21T08:31:06;1.43;;;1.20;;
76346;SDS011;73309;48.818;9.806;2023-11-21T08:33:31;1.40;;;1.10;;
76346;SDS011;73309;48.818;9.806;2023-11-21T08:35:58;1.23;;;1.10;;
76346;SDS011;73309;48.818;9.806;2023-11-21T08:38:23;1.33;;;1.20;;
76346;SDS011;73309;48.818;9.806;2023-11-21T08:40:49;1.37;;;1.10;;
76346;SDS011;73309;48.818;9.806;2023-11-21T08:43:14;1.30;;;1.20;;
76346;SDS011;73309;48.818;9.806;2023-11-21T08:45:40;1.70;;;1.10;;
76346;SDS011;73309;48.818;9.806;2023-11-21T08:48:05;1.40;;;1.10;;
76346;SDS011;73309;48.818;9.806;2023-11-21T08:50:30;1.60;;;1.30;;
76346;SDS011;73309;48.818;9.806;2023-11-21T08:52:57;1.67;;;1.10;;
76346;SDS011;73309;48.818;9.806;2023-11-21T08:55:22;1.83;;;1.20;;
76346;SDS011;73309;48.818;9.806;2023-11-21T08:57:48;1.67;;;1.20;;
76346;SDS011;73309;48.818;9.806;2023-11-21T09:00:13;1.50;;;1.10;;
76346;SDS011;73309;48.818;9.806;2023-11-21T09:02:39;1.70;;;1.07;;
76346;SDS011;73309;48.818;9.806;2023-11-21T09:05:05;1.40;;;1.10;;
76346;SDS011;73309;48.818;9.806;2023-11-21T09:07:31;1.70;;;1.30;;
76346;SDS011;73309;48.818;9.806;2023-11-21T09:09:57;1.30;;;1.20;;
76346;SDS011;73309;48.818;9.806;2023-11-21T09:12:23;1.60;;;1.20;;
76346;SDS011;73309;48.818;9.806;2023-11-21T09:14:48;1.63;;;1.23;;
76346;SDS011;73309;48.818;9.806;2023-11-21T09:17:13;1.20;;;1.10;;
76346;SDS011;73309;48.818;9.806;2023-11-21T09:19:39;1.20;;;1.10;;
76346;SDS011;73309;48.818;9.806;2023-11-21T09:22:05;1.30;;;1.20;;
76346;SDS011;73309;48.818;9.806;2023-11-21T09:24:30;1.33;;;1.20;;
76346;SDS011;73309;48.818;9.806;2023-11-21T09:26:57;1.27;;;1.10;;
76346;SDS011;73309;48.818;9.806;2023-11-21T09:29:22;1.97;;;1.20;;
76346;SDS011;73309;48.818;9.806;2023-11-21T09:31:48;1.30;;;1.20;;
76346;SDS011;73309;48.818;9.806;2023-11-21T09:34:13;1.67;;;1.20;;
76346;SDS011;73309;48.818;9.806;2023-11-21T09:36:39;1.43;;;1.13;;
76346;SDS011;73309;48.818;9.806;2023-11-21T09:39:04;1.53;;;1.17;;
76346;SDS011;73309;48.818;9.806;2023-11-21T09:41:34;1.30;;;1.20;;
76346;SDS011;73309;48.818;9.806;2023-11-21T09:44:06;1.30;;;1.20;;
76346;SDS011;73309;48.818;9.806;2023-11-21T09:46:34;1.33;;;1.23;;
76346;SDS011;73309;48.818;9.806;2023-11-21T09:49:00;1.27;;;1.17;;
76346;SDS011;73309;48.818;9.806;2023-11-21T09:51:27;1.90;;;1.37;;
76346;SDS011;73309;48.818;9.806;2023-11-21T09:53:56;1.10;;;1.00;;
76346;SDS011;73309;48.818;9.806;2023-11-21T09:56:25;1.47;;;1.13;;
76346;SDS011;73309;48.818;9.806;2023-11-21T09:58:53;2.33;;;1.20;;
76346;SDS011;73309;48.818;9.806;2023-11-21T10:01:20;1.40;;;1.20;;
76346;SDS011;73309;48.818;9.806;2023-11-21T10:03:46;1.43;;;1.10;;
76346;SDS011;73309;48.818;9.806;2023-11-21T10:06:12;1.67;;;1.20;;
76346;SDS011;73309;48.818;9.806;2023-11-21T10:08:38;1.20;;;1.07;;
76346;SDS011;73309;48.818;9.806;2023-11-21T10:11:03;1.20;;;1.07;;
76346;SDS011;73309;48.818;9.806;2023-11-21T10:13:31;1.63;;;1.20;;
76346;SDS011;73309;48.818;9.806;2023-11-21T10:15:57;1.60;;;1.10;;
76346;SDS011;73309;48.818;9.806;2023-11-21T10:18:25;1.67;;;1.20;;
76346;SDS011;73309;48.818;9.806;2023-11-21T10:20:51;1.27;;;1.17;;
76346;SDS011;73309;48.818;9.806;2023-11-21T10:23:18;1.63;;;1.10;;
76346;SDS011;73309;48.818;9.806;2023-11-21T10:25:44;1.17;;;1.03;;
76346;SDS011;73309;48.818;9.806;2023-11-21T10:28:09;1.73;;;0.97;;
76346;SDS011;73309;48.818;9.806;2023-11-21T10:30:35;1.20;;;1.10;;
76346;SDS011;73309;48.818;9.806;2023-11-21T10:33:01;1.93;;;1.27;;
76346;SDS011;73309;48.818;9.806;2023-11-21T10:35:39;1.30;;;1.10;;
76346;SDS011;73309;48.818;9.806;2023-11-21T10:38:07;3.97;;;1.23;;
76346;SDS011;73309;48.818;9.806;2023-11-21T10:40:32;1.30;;;1.10;;
76346;SDS011;73309;48.818;9.806;2023-11-21T10:43:01;1.30;;;1.20;;
76346;SDS011;73309;48.818;9.806;2023-11-21T10:45:31;1.13;;;1.03;;
76346;SDS011;73309;48.818;9.806;2023-11-21T10:47:56;1.63;;;1.30;;
76346;SDS011;73309;48.818;9.806;2023-11-21T10:50:21;1.43;;;1.10;;
76346;SDS011;73309;48.818;9.806;2023-11-21T10:52:50;1.80;;;1.30;;
76346;SDS011;73309;48.818;9.806;2023-11-21T10:55:16;1.20;;;1.10;;
76346;SDS011;73309;48.818;9.806;2023-11-21T10:57:42;1.37;;;1.10;;
76346;SDS011;73309;48.818;9.806;2023-11-21T11:00:09;2.60;;;1.30;;
76346;SDS011;73309;48.818;9.806;2023-11-21T11:02:35;1.30;;;1.20;;
76346;SDS011;73309;48.818;9.806;2023-11-21T11:05:01;1.70;;;1.10;;
76346;SDS011;73309;48.818;9.806;2023-11-21T11:07:28;1.57;;;1.20;;
76346;SDS011;73309;48.818;9.806;2023-11-21T11:09:55;1.27;;;1.13;;
76346;SDS011;73309;48.818;9.806;2023-11-21T11:12:23;2.07;;;1.30;;
76346;SDS011;73309;48.818;9.806;2023-11-21T11:14:48;1.87;;;1.20;;
76346;SDS011;73309;48.818;9.806;2023-11-21T11:17:14;1.30;;;1.10;;
76346;SDS011;73309;48.818;9.806;2023-11-21T11:19:39;1.40;;;1.20;;
76346;SDS011;73309;48.818;9.806;2023-11-21T11:22:08;1.20;;;1.10;;
76346;SDS011;73309;48.818;9.806;2023-11-21T11:24:44;1.13;;;1.03;;
76346;SDS011;73309;48.818;9.806;2023-11-21T11:27:23;1.37;;;1.20;;
76346;SDS011;73309;48.818;9.806;2023-11-21T11:29:57;1.20;;;1.10;;
76346;SDS011;73309;48.818;9.806;2023-11-21T11:32:35;1.27;;;1.17;;
76346;SDS011;73309;48.818;9.806;2023-11-21T11:35:10;1.37;;;1.20;;
76346;SDS011;73309;48.818;9.806;2023-11-21T11:37:42;1.33;;;1.20;;
76346;SDS011;73309;48.818;9.806;2023-11-21T11:40:08;1.30;;;1.10;;
76346;SDS011;73309;48.818;9.806;2023-11-21T11:42:37;1.50;;;1.30;;
76346;SDS011;73309;48.818;9.806;2023-11-21T11:45:04;1.20;;;1.10;;
76346;SDS011;73309;48.818;9.806;2023-11-21T11:47:42;1.33;;;1.20;;
76346;SDS011;73309;48.818;9.806;2023-11-21T11:50:08;1.20;;;1.10;;
76346;SDS011;73309;48.818;9.806;2023-11-21T11:52:35;1.30;;;1.20;;
76346;SDS011;73309;48.818;9.806;2023-11-21T11:55:01;2.20;;;1.30;;
76346;SDS011;73309;48.818;9.806;2023-11-21T11:57:29;1.50;;;1.20;;
76346;SDS011;73309;48.818;9.806;2023-11-21T12:00:08;2.20;;;1.27;;
76346;SDS011;73309;48.818;9.806;2023-11-21T12:02:35;1.10;;;1.00;;
76346;SDS011;73309;48.818;9.806;2023-11-21T12:05:06;1.63;;;1.33;;
76346;SDS011;73309;48.818;9.806;2023-11-21T12:07:38;1.20;;;1.00;;
76346;SDS011;73309;48.818;9.806;2023-11-21T12:10:06;2.33;;;1.20;;
76346;SDS011;73309;48.818;9.806;2023-11-21T12:12:32;1.40;;;1.10;;
76346;SDS011;73309;48.818;9.806;2023-11-21T12:14:59;1.33;;;1.20;;
76346;SDS011;73309;48.818;9.806;2023-11-21T12:17:26;1.33;;;1.23;;
76346;SDS011;73309;48.818;9.806;2023-11-21T12:19:51;2.50;;;1.30;;
76346;SDS011;73309;48.818;9.806;2023-11-21T12:22:17;1.63;;;1.13;;
76346;SDS011;73309;48.818;9.806;2023-11-21T12:24:42;1.60;;;1.30;;
76346;SDS011;73309;48.818;9.806;2023-11-21T12:27:08;1.20;;;1.10;;
76346;SDS011;73309;48.818;9.806;2023-11-21T12:29:33;1.43;;;1.30;;
76346;SDS011;73309;48.818;9.806;2023-11-21T12:31:58;1.50;;;1.33;;
76346;SDS011;73309;48.818;9.806;2023-11-21T12:34:25;1.23;;;1.13;;
76346;SDS011;73309;48.818;9.806;2023-11-21T12:36:51;1.53;;;1.20;;
76346;SDS011;73309;48.818;9.806;2023-11-21T12:39:16;1.40;;;1.20;;
76346;SDS011;73309;48.818;9.806;2023-11-21T12:41:41;1.20;;;1.10;;
76346;SDS011;73309;48.818;9.806;2023-11-21T12:44:09;1.83;;;1.20;;
76346;SDS011;73309;48.818;9.806;2023-11-21T12:46:40;1.50;;;1.30;;
76346;SDS011;73309;48.818;9.806;2023-11-21T12:49:06;1.20;;;1.10;;
76346;SDS011;73309;48.818;9.806;2023-11-21T12:51:33;1.30;;;1.20;;
76346;SDS011;73309;48.818;9.806;2023-11-21T12:53:59;1.83;;;1.43;;
76346;SDS011;73309;48.818;9.806;2023-11-21T12:56:24;1.23;;;1.13;;
76346;SDS011;73309;48.818;9.806;2023-11-21T12:58:50;1.47;;;1.10;;
76346;SDS011;73309;48.818;9.806;2023-11-21T13:01:18;1.47;;;1.20;;
76346;SDS011;73309;48.818;9.806;2023-11-21T13:03:46;1.23;;;1.13;;
76346;SDS011;73309;48.818;9.806;2023-11-21T13:06:12;1.50;;;1.07;;
76346;SDS011;73309;48.818;9.806;2023-11-21T13:08:39;1.50;;;1.30;;
76346;SDS011;73309;48.818;9.806;2023-11-21T13:11:05;1.73;;;1.43;;
76346;SDS011;73309;48.818;9.806;2023-11-21T13:13:31;1.30;;;1.20;;
76346;SDS011;73309;48.818;9.806;2023-11-21T13:15:59;1.30;;;1.20;;
76346;SDS011;73309;48.818;9.806;2023-11-21T13:18:27;1.40;;;1.30;;
76346;SDS011;73309;48.818;9.806;2023-11-21T13:20:53;1.27;;;1.17;;
76346;SDS011;73309;48.818;9.806;2023-11-21T13:23:19;1.30;;;1.20;;
76346;SDS011;73309;48.818;9.806;2023-11-21T13:25:45;1.33;;;1.10;;
76346;SDS011;73309;48.818;9.806;2023-11-21T13:28:11;1.20;;;1.10;;
76346;SDS011;73309;48.818;9.806;2023-11-21T13:30:37;1.27;;;1.10;;
76346;SDS011;73309;48.818;9.806;2023-11-21T13:33:03;1.37;;;1.27;;
76346;SDS011;73309;48.818;9.806;2023-11-21T13:35:29;1.30;;;1.20;;
76346;SDS011;73309;48.818;9.806;2023-11-21T13:37:55;1.40;;;1.20;;
76346;SDS011;73309;48.818;9.806;2023-11-21T13:40:21;1.20;;;1.10;;
76346;SDS011;73309;48.818;9.806;2023-11-21T13:42:49;1.40;;;1.20;;
76346;SDS011;73309;48.818;9.806;2023-11-21T13:45:15;1.67;;;1.40;;
76346;SDS011;73309;48.818;9.806;2023-11-21T13:47:40;1.47;;;1.20;;
76346;SDS011;73309;48.818;9.806;2023-11-21T13:50:06;1.17;;;1.07;;
76346;SDS011;73309;48.818;9.806;2023-11-21T13:52:32;3.30;;;1.00;;
76346;SDS011;73309;48.818;9.806;2023-11-21T13:54:57;1.20;;;1.10;;
76346;SDS011;73309;48.818;9.806;2023-11-21T13:57:23;1.30;;;1.20;;
76346;SDS011;73309;48.818;9.806;2023-11-21T13:59:49;1.40;;;1.30;;
76346;SDS011;73309;48.818;9.806;2023-11-21T14:02:15;1.20;;;1.10;;
76346;SDS011;73309;48.818;9.806;2023-11-21T14:04:40;1.30;;;1.20;;
76346;SDS011;73309;48.818;9.806;2023-11-21T14:07:06;1.37;;;1.17;;
76346;SDS011;73309;48.818;9.806;2023-11-21T14:09:31;1.20;;;1.10;;
76346;SDS011;73309;48.818;9.806;2023-11-21T14:11:57;1.67;;;1.47;;
76346;SDS011;73309;48.818;9.806;2023-11-21T14:14:23;1.30;;;1.20;;
76346;SDS011;73309;48.818;9.806;2023-11-21T14:16:51;2.97;;;1.30;;
76346;SDS011;73309;48.818;9.806;2023-11-21T14:19:17;4.90;;;1.60;;
76346;SDS011;73309;48.818;9.806;2023-11-21T14:21:43;2.13;;;1.47;;
76346;SDS011;73309;48.818;9.806;2023-11-21T14:24:09;1.77;;;1.40;;
76346;SDS011;73309;48.818;9.806;2023-11-21T14:26:34;1.60;;;1.50;;
76346;SDS011;73309;48.818;9.806;2023-11-21T14:29:00;1.97;;;1.40;;
76346;SDS011;73309;48.818;9.806;2023-11-21T14:31:25;3.03;;;1.67;;
76346;SDS011;73309;48.818;9.806;2023-11-21T14:33:55;2.63;;;1.40;;
76346;SDS011;73309;48.818;9.806;2023-11-21T14:36:20;1.97;;;1.40;;
76346;SDS011;73309;48.818;9.806;2023-11-21T14:38:45;1.80;;;1.30;;
76346;SDS011;73309;48.818;9.806;2023-11-21T14:41:11;2.63;;;1.80;;